createdAt,value
2018-07-22T00:00:30.449Z,1011.75
2018-07-22T00:01:30.477Z,1011.76
2018-07-22T00:02:30.508Z,1011.77
2018-07-22T00:03:30.527Z,1011.79
2018-07-22T00:04:30.564Z,1011.73
2018-07-22T00:05:30.581Z,1011.73
2018-07-22T00:06:30.607Z,1011.74
2018-07-22T00:07:30.639Z,1011.75
2018-07-22T00:08:30.668Z,1011.72
2018-07-22T00:09:30.697Z,1011.74
2018-07-22T00:10:30.719Z,1011.72
2018-07-22T00:11:30.751Z,1011.71
2018-07-22T00:12:30.774Z,1011.68
2018-07-22T00:13:30.804Z,1011.67
2018-07-22T00:14:30.835Z,1011.67
2018-07-22T00:15:30.853Z,1011.65
2018-07-22T00:16:30.885Z,1011.67
2018-07-22T00:17:30.915Z,1011.63
2018-07-22T00:18:30.940Z,1011.65
2018-07-22T00:19:30.967Z,1011.66
2018-07-22T00:20:30.995Z,1011.71
2018-07-22T00:21:31.019Z,1011.70
2018-07-22T00:22:31.050Z,1011.70
2018-07-22T00:23:31.071Z,1011.73
2018-07-22T00:24:31.099Z,1011.69
2018-07-22T00:25:31.123Z,1011.73
2018-07-22T00:26:31.156Z,1011.72
2018-07-22T00:27:31.178Z,1011.70
2018-07-22T00:28:31.211Z,1011.71
2018-07-22T00:29:31.233Z,1011.72
2018-07-22T00:30:31.267Z,1011.73
2018-07-22T00:31:31.290Z,1011.74
2018-07-22T00:32:31.317Z,1011.69
2018-07-22T00:33:31.347Z,1011.72
2018-07-22T00:34:31.372Z,1011.71
2018-07-22T00:35:31.399Z,1011.71
2018-07-22T00:36:31.424Z,1011.70
2018-07-22T00:37:31.449Z,1011.66
2018-07-22T00:38:31.478Z,1011.63
2018-07-22T00:39:31.505Z,1011.67
2018-07-22T00:40:31.735Z,1011.66
2018-07-22T00:41:31.560Z,1011.64
2018-07-22T00:42:31.586Z,1011.67
2018-07-22T00:43:31.613Z,1011.64
2018-07-22T00:44:31.672Z,1011.67
2018-07-22T00:45:31.661Z,1011.64
2018-07-22T00:46:31.697Z,1011.69
2018-07-22T00:47:31.718Z,1011.66
2018-07-22T00:48:31.741Z,1011.61
2018-07-22T00:49:34.598Z,1011.61
2018-07-22T00:50:31.800Z,1011.61
2018-07-22T00:51:31.829Z,1011.59
2018-07-22T00:52:31.853Z,1011.58
2018-07-22T00:53:31.924Z,1011.56
2018-07-22T00:54:31.909Z,1011.61
2018-07-22T00:55:31.927Z,1011.59
2018-07-22T00:56:31.959Z,1011.59
2018-07-22T00:57:31.984Z,1011.56
2018-07-22T00:58:33.427Z,1011.52
2018-07-22T00:59:32.043Z,1011.53
2018-07-22T01:00:32.067Z,1011.52
2018-07-22T01:01:32.091Z,1011.50
2018-07-22T01:02:32.116Z,1011.49
2018-07-22T01:03:32.149Z,1011.49
2018-07-22T01:04:32.176Z,1011.53
2018-07-22T01:05:32.207Z,1011.48
2018-07-22T01:06:32.228Z,1011.51
2018-07-22T01:07:32.254Z,1011.50
2018-07-22T01:08:32.285Z,1011.49
2018-07-22T01:09:32.325Z,1011.50
2018-07-22T01:10:32.337Z,1011.47
2018-07-22T01:11:32.355Z,1011.47
2018-07-22T01:12:32.389Z,1011.46
2018-07-22T01:13:32.420Z,1011.46
2018-07-22T01:14:32.441Z,1011.47
2018-07-22T01:15:32.469Z,1011.43
2018-07-22T01:16:32.492Z,1011.43
2018-07-22T01:17:32.517Z,1011.44
2018-07-22T01:18:32.548Z,1011.43
2018-07-22T01:19:32.572Z,1011.46
2018-07-22T01:20:32.603Z,1011.42
2018-07-22T01:21:32.627Z,1011.47
2018-07-22T01:22:32.657Z,1011.46
2018-07-22T01:23:32.683Z,1011.43
2018-07-22T01:24:32.705Z,1011.43
2018-07-22T01:25:32.733Z,1011.42
2018-07-22T01:26:32.764Z,1011.42
2018-07-22T01:27:32.790Z,1011.39
2018-07-22T01:28:32.812Z,1011.38
2018-07-22T01:29:32.836Z,1011.39
2018-07-22T01:30:32.860Z,1011.39
2018-07-22T01:31:32.894Z,1011.42
2018-07-22T01:32:32.924Z,1011.41
2018-07-22T01:33:32.947Z,1011.43
2018-07-22T01:34:32.965Z,1011.42
2018-07-22T01:35:32.996Z,1011.43
2018-07-22T01:36:33.023Z,1011.43
2018-07-22T01:37:33.050Z,1011.45
2018-07-22T01:38:33.076Z,1011.42
2018-07-22T01:39:33.101Z,1011.42
2018-07-22T01:40:33.131Z,1011.44
2018-07-22T01:41:33.157Z,1011.43
2018-07-22T01:42:33.181Z,1011.47
2018-07-22T01:43:33.209Z,1011.45
2018-07-22T01:44:33.234Z,1011.47
2018-07-22T01:45:33.268Z,1011.47
2018-07-22T01:46:33.286Z,1011.42
2018-07-22T01:47:33.313Z,1011.48
2018-07-22T01:48:33.344Z,1011.46
2018-07-22T01:49:33.368Z,1011.45
2018-07-22T01:50:33.393Z,1011.45
2018-07-22T01:51:33.414Z,1011.43
2018-07-22T01:52:33.445Z,1011.44
2018-07-22T01:53:33.476Z,1011.43
2018-07-22T01:54:33.496Z,1011.41
2018-07-22T01:55:33.526Z,1011.42
2018-07-22T01:56:33.557Z,1011.43
2018-07-22T01:57:33.581Z,1011.43
2018-07-22T01:58:33.608Z,1011.40
2018-07-22T01:59:33.630Z,1011.42
2018-07-22T02:00:33.657Z,1011.40
2018-07-22T02:01:33.688Z,1011.41
2018-07-22T02:02:33.716Z,1011.40
2018-07-22T02:03:33.744Z,1011.40
2018-07-22T02:04:33.768Z,1011.35
2018-07-22T02:05:33.791Z,1011.37
2018-07-22T02:06:33.816Z,1011.35
2018-07-22T02:07:33.847Z,1011.36
2018-07-22T02:08:33.872Z,1011.37
2018-07-22T02:09:33.894Z,1011.38
2018-07-22T02:10:33.924Z,1011.37
2018-07-22T02:11:33.950Z,1011.35
2018-07-22T02:12:33.975Z,1011.33
2018-07-22T02:13:34.002Z,1011.35
2018-07-22T02:14:34.031Z,1011.32
2018-07-22T02:15:34.057Z,1011.31
2018-07-22T02:16:34.081Z,1011.27
2018-07-22T02:17:34.113Z,1011.26
2018-07-22T02:18:34.136Z,1011.23
2018-07-22T02:19:34.167Z,1011.24
2018-07-22T02:20:34.188Z,1011.21
2018-07-22T02:21:34.221Z,1011.24
2018-07-22T02:22:34.245Z,1011.22
2018-07-22T02:23:34.266Z,1011.26
2018-07-22T02:24:34.298Z,1011.26
2018-07-22T02:25:34.320Z,1011.26
2018-07-22T02:26:34.343Z,1011.24
2018-07-22T02:27:34.374Z,1011.26
2018-07-22T02:28:34.404Z,1011.28
2018-07-22T02:29:34.434Z,1011.21
2018-07-22T02:30:34.456Z,1011.23
2018-07-22T02:31:34.480Z,1011.20
2018-07-22T02:32:34.505Z,1011.21
2018-07-22T02:33:34.528Z,1011.24
2018-07-22T02:34:34.558Z,1011.25
2018-07-22T02:35:34.584Z,1011.26
2018-07-22T02:36:34.624Z,1011.23
2018-07-22T02:37:34.638Z,1011.24
2018-07-22T02:38:34.664Z,1011.25
2018-07-22T02:39:34.690Z,1011.27
2018-07-22T02:40:34.717Z,1011.26
2018-07-22T02:41:34.746Z,1011.27
2018-07-22T02:42:34.767Z,1011.29
2018-07-22T02:43:34.793Z,1011.29
2018-07-22T02:44:34.822Z,1011.32
2018-07-22T02:45:34.854Z,1011.31
2018-07-22T02:46:34.915Z,1011.29
2018-07-22T02:47:34.905Z,1011.28
2018-07-22T02:48:34.944Z,1011.28
2018-07-22T02:49:34.963Z,1011.25
2018-07-22T02:50:34.981Z,1011.22
2018-07-22T02:51:35.060Z,1011.21
2018-07-22T02:52:35.034Z,1011.24
2018-07-22T02:53:35.058Z,1011.21
2018-07-22T02:54:35.090Z,1011.23
2018-07-22T02:55:35.113Z,1011.22
2018-07-22T02:56:35.142Z,1011.21
2018-07-22T02:57:35.170Z,1011.21
2018-07-22T02:58:35.217Z,1011.19
2018-07-22T02:59:35.222Z,1011.18
2018-07-22T03:00:35.251Z,1011.19
2018-07-22T03:01:35.273Z,1011.16
2018-07-22T03:02:35.296Z,1011.17
2018-07-22T03:03:35.323Z,1011.12
2018-07-22T03:04:35.356Z,1011.10
2018-07-22T03:05:35.378Z,1011.13
2018-07-22T03:06:35.402Z,1011.15
2018-07-22T03:07:35.429Z,1011.15
2018-07-22T03:08:35.464Z,1011.15
2018-07-22T03:09:35.480Z,1011.14
2018-07-22T03:10:35.510Z,1011.17
2018-07-22T03:11:35.539Z,1011.16
2018-07-22T03:12:35.558Z,1011.16
2018-07-22T03:13:35.592Z,1011.18
2018-07-22T03:14:35.620Z,1011.18
2018-07-22T03:15:35.645Z,1011.20
2018-07-22T03:16:35.675Z,1011.21
2018-07-22T03:17:35.693Z,1011.19
2018-07-22T03:18:35.721Z,1011.21
2018-07-22T03:19:35.744Z,1011.22
2018-07-22T03:20:35.771Z,1011.21
2018-07-22T03:21:35.801Z,1011.22
2018-07-22T03:22:35.823Z,1011.16
2018-07-22T03:23:35.857Z,1011.19
2018-07-22T03:24:35.876Z,1011.17
2018-07-22T03:25:35.906Z,1011.16
2018-07-22T03:26:35.932Z,1011.17
2018-07-22T03:27:35.956Z,1011.18
2018-07-22T03:28:35.984Z,1011.22
2018-07-22T03:29:36.012Z,1011.19
2018-07-22T03:30:36.056Z,1011.21
2018-07-22T03:31:36.065Z,1011.20
2018-07-22T03:32:36.090Z,1011.22
2018-07-22T03:33:36.115Z,1011.20
2018-07-22T03:34:36.145Z,1011.23
2018-07-22T03:35:36.171Z,1011.24
2018-07-22T03:36:36.193Z,1011.25
2018-07-22T03:37:36.224Z,1011.20
2018-07-22T03:38:36.246Z,1011.25
2018-07-22T03:39:36.273Z,1011.28
2018-07-22T03:40:36.297Z,1011.30
2018-07-22T03:41:36.330Z,1011.29
2018-07-22T03:42:36.357Z,1011.32
2018-07-22T03:43:36.380Z,1011.33
2018-07-22T03:44:36.405Z,1011.34
2018-07-22T03:45:36.434Z,1011.31
2018-07-22T03:46:36.457Z,1011.28
2018-07-22T03:47:36.485Z,1011.29
2018-07-22T03:48:36.513Z,1011.29
2018-07-22T03:49:36.542Z,1011.27
2018-07-22T03:50:36.571Z,1011.27
2018-07-22T03:51:36.585Z,1011.28
2018-07-22T03:52:36.618Z,1011.28
2018-07-22T03:53:36.639Z,1011.25
2018-07-22T03:54:36.664Z,1011.20
2018-07-22T03:55:36.690Z,1011.18
2018-07-22T03:56:36.722Z,1011.15
2018-07-22T03:57:36.748Z,1011.15
2018-07-22T03:58:36.776Z,1011.19
2018-07-22T03:59:36.798Z,1011.18
2018-07-22T04:00:36.827Z,1011.15
2018-07-22T04:01:36.854Z,1011.19
2018-07-22T04:02:36.881Z,1011.15
2018-07-22T04:03:36.902Z,1011.18
2018-07-22T04:04:36.934Z,1011.17
2018-07-22T04:05:36.956Z,1011.16
2018-07-22T04:06:36.979Z,1011.16
2018-07-22T04:07:37.014Z,1011.16
2018-07-22T04:08:37.036Z,1011.15
2018-07-22T04:09:37.062Z,1011.17
2018-07-22T04:10:37.087Z,1011.15
2018-07-22T04:11:37.113Z,1011.18
2018-07-22T04:12:37.142Z,1011.15
2018-07-22T04:13:37.170Z,1011.13
2018-07-22T04:14:37.192Z,1011.20
2018-07-22T04:15:37.214Z,1011.19
2018-07-22T04:16:37.256Z,1011.20
2018-07-22T04:17:37.274Z,1011.15
2018-07-22T04:18:37.298Z,1011.23
2018-07-22T04:19:37.320Z,1011.20
2018-07-22T04:20:37.352Z,1011.22
2018-07-22T04:21:37.380Z,1011.20
2018-07-22T04:22:37.406Z,1011.15
2018-07-22T04:23:37.434Z,1011.17
2018-07-22T04:24:37.456Z,1011.18
2018-07-22T04:25:37.482Z,1011.19
2018-07-22T04:26:37.509Z,1011.17
2018-07-22T04:27:37.532Z,1011.19
2018-07-22T04:28:37.561Z,1011.17
2018-07-22T04:29:37.584Z,1011.20
2018-07-22T04:30:37.616Z,1011.20
2018-07-22T04:31:37.641Z,1011.23
2018-07-22T04:32:37.664Z,1011.22
2018-07-22T04:33:37.696Z,1011.27
2018-07-22T04:34:37.722Z,1011.29
2018-07-22T04:35:37.752Z,1011.27
2018-07-22T04:36:37.778Z,1011.26
2018-07-22T04:37:37.796Z,1011.25
2018-07-22T04:38:37.822Z,1011.27
2018-07-22T04:39:37.852Z,1011.27
2018-07-22T04:40:37.878Z,1011.24
2018-07-22T04:41:37.902Z,1011.26
2018-07-22T04:42:37.930Z,1011.26
2018-07-22T04:43:37.961Z,1011.23
2018-07-22T04:44:37.982Z,1011.25
2018-07-22T04:45:38.014Z,1011.24
2018-07-22T04:46:38.035Z,1011.23
2018-07-22T04:47:38.056Z,1011.27
2018-07-22T04:48:38.092Z,1011.23
2018-07-22T04:49:38.114Z,1011.26
2018-07-22T04:50:38.136Z,1011.24
2018-07-22T04:51:38.175Z,1011.24
2018-07-22T04:52:38.196Z,1011.25
2018-07-22T04:53:38.272Z,1011.27
2018-07-22T04:54:38.253Z,1011.26
2018-07-22T04:55:38.270Z,1011.27
2018-07-22T04:56:38.300Z,1011.30
2018-07-22T04:57:38.324Z,1011.28
2018-07-22T04:58:38.352Z,1011.32
2018-07-22T04:59:38.381Z,1011.33
2018-07-22T05:00:38.406Z,1011.36
2018-07-22T05:01:38.426Z,1011.39
2018-07-22T05:02:38.458Z,1011.39
2018-07-22T05:03:38.486Z,1011.41
2018-07-22T05:04:38.509Z,1011.41
2018-07-22T05:05:38.536Z,1011.42
2018-07-22T05:06:38.564Z,1011.46
2018-07-22T05:07:38.586Z,1011.42
2018-07-22T05:08:38.613Z,1011.41
2018-07-22T05:09:38.646Z,1011.44
2018-07-22T05:10:38.670Z,1011.45
2018-07-22T05:11:38.691Z,1011.44
2018-07-22T05:12:38.724Z,1011.44
2018-07-22T05:13:38.747Z,1011.43
2018-07-22T05:14:38.777Z,1011.45
2018-07-22T05:15:38.802Z,1011.46
2018-07-22T05:16:38.826Z,1011.49
2018-07-22T05:17:38.854Z,1011.51
2018-07-22T05:18:38.879Z,1011.54
2018-07-22T05:19:38.906Z,1011.53
2018-07-22T05:20:38.932Z,1011.54
2018-07-22T05:21:38.958Z,1011.52
2018-07-22T05:22:38.988Z,1011.55
2018-07-22T05:23:39.019Z,1011.59
2018-07-22T05:24:39.037Z,1011.59
2018-07-22T05:25:39.070Z,1011.57
2018-07-22T05:26:39.093Z,1011.62
2018-07-22T05:27:39.116Z,1011.60
2018-07-22T05:28:39.148Z,1011.62
2018-07-22T05:29:39.169Z,1011.63
2018-07-22T05:30:39.202Z,1011.63
2018-07-22T05:31:39.226Z,1011.61
2018-07-22T05:32:39.251Z,1011.64
2018-07-22T05:33:39.278Z,1011.60
2018-07-22T05:34:39.308Z,1011.60
2018-07-22T05:35:39.332Z,1011.63
2018-07-22T05:36:39.356Z,1011.62
2018-07-22T05:37:39.388Z,1011.65
2018-07-22T05:38:39.415Z,1011.64
2018-07-22T05:39:39.440Z,1011.63
2018-07-22T05:40:39.466Z,1011.65
2018-07-22T05:41:39.492Z,1011.65
2018-07-22T05:42:39.516Z,1011.62
2018-07-22T05:43:39.553Z,1011.66
2018-07-22T05:44:39.570Z,1011.70
2018-07-22T05:45:39.601Z,1011.74
2018-07-22T05:46:39.628Z,1011.73
2018-07-22T05:47:39.652Z,1011.72
2018-07-22T05:48:39.680Z,1011.76
2018-07-22T05:49:39.704Z,1011.76
2018-07-22T05:50:39.739Z,1011.74
2018-07-22T05:51:39.757Z,1011.72
2018-07-22T05:52:39.781Z,1011.73
2018-07-22T05:53:39.810Z,1011.77
2018-07-22T05:54:39.836Z,1011.75
2018-07-22T05:55:39.862Z,1011.78
2018-07-22T05:56:39.886Z,1011.76
2018-07-22T05:57:39.918Z,1011.76
2018-07-22T05:58:39.949Z,1011.79
2018-07-22T05:59:39.970Z,1011.81
2018-07-22T06:00:40.003Z,1011.79
2018-07-22T06:01:40.028Z,1011.79
2018-07-22T06:02:40.057Z,1011.80
2018-07-22T06:03:40.077Z,1011.82
2018-07-22T06:04:40.109Z,1011.80
2018-07-22T06:05:40.141Z,1011.84
2018-07-22T06:06:40.155Z,1011.81
2018-07-22T06:07:40.183Z,1011.82
2018-07-22T06:08:40.211Z,1011.84
2018-07-22T06:09:40.241Z,1011.83
2018-07-22T06:10:40.267Z,1011.87
2018-07-22T06:11:40.317Z,1011.85
2018-07-22T06:12:40.322Z,1011.90
2018-07-22T06:13:40.353Z,1011.91
2018-07-22T06:14:40.379Z,1011.89
2018-07-22T06:15:40.405Z,1011.90
2018-07-22T06:16:40.487Z,1011.86
2018-07-22T06:17:40.486Z,1011.87
2018-07-22T06:18:40.488Z,1011.89
2018-07-22T06:19:40.534Z,1011.89
2018-07-22T06:20:40.544Z,1011.88
2018-07-22T06:21:40.569Z,1011.85
2018-07-22T06:22:40.602Z,1011.81
2018-07-22T06:23:40.620Z,1011.81
2018-07-22T06:24:40.651Z,1011.81
2018-07-22T06:25:40.688Z,1011.84
2018-07-22T06:26:40.708Z,1011.84
2018-07-22T06:27:40.733Z,1011.82
2018-07-22T06:28:40.761Z,1011.82
2018-07-22T06:29:40.786Z,1011.80
2018-07-22T06:30:40.827Z,1011.79
2018-07-22T06:31:40.846Z,1011.79
2018-07-22T06:32:40.872Z,1011.83
2018-07-22T06:33:40.898Z,1011.82
2018-07-22T06:34:40.932Z,1011.85
2018-07-22T06:35:40.954Z,1011.84
2018-07-22T06:36:40.989Z,1011.85
2018-07-22T06:37:41.012Z,1011.83
2018-07-22T06:38:41.040Z,1011.88
2018-07-22T06:39:41.068Z,1011.87
2018-07-22T06:40:41.097Z,1011.87
2018-07-22T06:41:41.122Z,1011.89
2018-07-22T06:42:41.150Z,1011.92
2018-07-22T06:43:41.185Z,1011.90
2018-07-22T06:44:41.208Z,1011.94
2018-07-22T06:45:41.236Z,1011.91
2018-07-22T06:46:41.339Z,1011.90
2018-07-22T06:47:41.288Z,1011.90
2018-07-22T06:48:41.314Z,1011.92
2018-07-22T06:49:41.346Z,1011.90
2018-07-22T06:50:41.370Z,1011.94
2018-07-22T06:51:41.399Z,1011.95
2018-07-22T06:52:41.427Z,1011.97
2018-07-22T06:53:41.572Z,1011.98
2018-07-22T06:54:41.489Z,1011.98
2018-07-22T06:55:41.512Z,1011.97
2018-07-22T06:56:41.541Z,1012.00
2018-07-22T06:57:41.567Z,1011.98
2018-07-22T06:58:41.598Z,1011.97
2018-07-22T06:59:41.624Z,1011.98
2018-07-22T07:00:41.650Z,1011.97
2018-07-22T07:01:41.680Z,1011.95
2018-07-22T07:02:41.704Z,1011.95
2018-07-22T07:03:41.729Z,1011.91
2018-07-22T07:04:41.761Z,1011.89
2018-07-22T07:05:41.789Z,1011.92
2018-07-22T07:06:41.823Z,1011.88
2018-07-22T07:07:41.847Z,1011.84
2018-07-22T07:08:41.876Z,1011.86
2018-07-22T07:09:41.903Z,1011.89
2018-07-22T07:10:41.931Z,1011.88
2018-07-22T07:11:41.965Z,1011.85
2018-07-22T07:12:42.589Z,1011.86
2018-07-22T07:13:42.014Z,1011.88
2018-07-22T07:14:42.048Z,1011.90
2018-07-22T07:15:42.064Z,1011.92
2018-07-22T07:16:42.151Z,1011.90
2018-07-22T07:17:42.120Z,1011.95
2018-07-22T07:18:42.148Z,1011.93
2018-07-22T07:19:42.176Z,1011.94
2018-07-22T07:20:42.254Z,1011.98
2018-07-22T07:21:42.235Z,1012.03
2018-07-22T07:22:42.261Z,1012.01
2018-07-22T07:23:42.290Z,1012.01
2018-07-22T07:24:42.312Z,1012.04
2018-07-22T07:25:42.348Z,1012.05
2018-07-22T07:26:42.384Z,1012.03
2018-07-22T07:27:42.398Z,1012.05
2018-07-22T07:28:42.432Z,1012.05
2018-07-22T07:29:42.458Z,1012.05
2018-07-22T07:30:42.478Z,1012.07
2018-07-22T07:31:42.507Z,1012.08
2018-07-22T07:32:42.546Z,1012.10
2018-07-22T07:33:42.641Z,1012.17
2018-07-22T07:34:42.595Z,1012.20
2018-07-22T07:35:42.618Z,1012.20
2018-07-22T07:36:42.645Z,1012.21
2018-07-22T07:37:42.676Z,1012.17
2018-07-22T07:38:42.708Z,1012.23
2018-07-22T07:39:42.729Z,1012.16
2018-07-22T07:40:42.752Z,1012.17
2018-07-22T07:41:42.786Z,1012.15
2018-07-22T07:42:42.814Z,1012.14
2018-07-22T07:43:42.844Z,1012.15
2018-07-22T07:44:42.872Z,1012.16
2018-07-22T07:45:42.892Z,1012.20
2018-07-22T07:46:42.923Z,1012.19
2018-07-22T07:47:42.953Z,1012.18
2018-07-22T07:48:42.973Z,1012.17
2018-07-22T07:49:43.010Z,1012.19
2018-07-22T07:50:43.034Z,1012.21
2018-07-22T07:51:43.057Z,1012.20
2018-07-22T07:52:43.089Z,1012.20
2018-07-22T07:53:43.113Z,1012.21
2018-07-22T07:54:43.142Z,1012.21
2018-07-22T07:55:43.166Z,1012.20
2018-07-22T07:56:43.198Z,1012.16
2018-07-22T07:57:43.226Z,1012.17
2018-07-22T07:58:43.253Z,1012.19
2018-07-22T07:59:43.278Z,1012.20
2018-07-22T08:00:43.307Z,1012.16
2018-07-22T08:01:43.331Z,1012.15
2018-07-22T08:02:43.361Z,1012.19
2018-07-22T08:03:43.389Z,1012.14
2018-07-22T08:04:43.426Z,1012.19
2018-07-22T08:05:43.444Z,1012.20
2018-07-22T08:06:43.475Z,1012.21
2018-07-22T08:07:43.504Z,1012.24
2018-07-22T08:08:43.529Z,1012.24
2018-07-22T08:09:43.558Z,1012.20
2018-07-22T08:10:43.581Z,1012.30
2018-07-22T08:11:43.672Z,1012.27
2018-07-22T08:12:43.648Z,1012.29
2018-07-22T08:13:43.668Z,1012.32
2018-07-22T08:14:43.696Z,1012.36
2018-07-22T08:15:43.720Z,1012.36
2018-07-22T08:16:43.761Z,1012.37
2018-07-22T08:17:43.775Z,1012.33
2018-07-22T08:18:43.804Z,1012.30
2018-07-22T08:19:43.835Z,1012.31
2018-07-22T08:20:43.859Z,1012.33
2018-07-22T08:21:44.038Z,1012.36
2018-07-22T08:22:43.925Z,1012.35
2018-07-22T08:23:43.947Z,1012.33
2018-07-22T08:24:43.970Z,1012.31
2018-07-22T08:25:43.998Z,1012.34
2018-07-22T08:26:44.025Z,1012.34
2018-07-22T08:27:44.058Z,1012.30
2018-07-22T08:28:44.082Z,1012.34
2018-07-22T08:29:44.112Z,1012.32
2018-07-22T08:30:44.142Z,1012.32
2018-07-22T08:31:44.161Z,1012.34
2018-07-22T08:32:44.191Z,1012.34
2018-07-22T08:33:44.221Z,1012.37
2018-07-22T08:34:44.249Z,1012.38
2018-07-22T08:35:44.272Z,1012.40
2018-07-22T08:36:44.309Z,1012.44
2018-07-22T08:37:44.333Z,1012.45
2018-07-22T08:38:44.362Z,1012.41
2018-07-22T08:39:44.386Z,1012.45
2018-07-22T08:40:44.415Z,1012.42
2018-07-22T08:41:44.445Z,1012.44
2018-07-22T08:42:44.471Z,1012.46
2018-07-22T08:43:44.500Z,1012.47
2018-07-22T08:44:44.530Z,1012.43
2018-07-22T08:45:44.558Z,1012.45
2018-07-22T08:46:44.582Z,1012.47
2018-07-22T08:47:44.626Z,1012.50
2018-07-22T08:48:44.643Z,1012.48
2018-07-22T08:49:44.668Z,1012.49
2018-07-22T08:50:44.701Z,1012.50
2018-07-22T08:51:44.723Z,1012.49
2018-07-22T08:52:44.751Z,1012.51
2018-07-22T08:53:44.781Z,1012.53
2018-07-22T08:54:44.812Z,1012.52
2018-07-22T08:55:44.836Z,1012.53
2018-07-22T08:56:44.868Z,1012.53
2018-07-22T08:57:44.890Z,1012.55
2018-07-22T08:58:44.920Z,1012.56
2018-07-22T08:59:44.950Z,1012.60
2018-07-22T09:00:44.975Z,1012.59
2018-07-22T09:01:45.004Z,1012.58
2018-07-22T09:02:45.032Z,1012.59
2018-07-22T09:03:45.066Z,1012.59
2018-07-22T09:04:45.089Z,1012.56
2018-07-22T09:05:45.120Z,1012.60
2018-07-22T09:06:45.145Z,1012.60
2018-07-22T09:07:45.173Z,1012.63
2018-07-22T09:08:45.203Z,1012.64
2018-07-22T09:09:45.239Z,1012.68
2018-07-22T09:10:45.262Z,1012.67
2018-07-22T09:11:45.367Z,1012.71
2018-07-22T09:12:45.312Z,1012.70
2018-07-22T09:13:45.341Z,1012.68
2018-07-22T09:14:45.373Z,1012.70
2018-07-22T09:15:45.396Z,1012.71
2018-07-22T09:16:45.426Z,1012.71
2018-07-22T09:17:45.504Z,1012.73
2018-07-22T09:18:45.486Z,1012.76
2018-07-22T09:19:45.513Z,1012.78
2018-07-22T09:20:45.545Z,1012.78
2018-07-22T09:21:45.572Z,1012.80
2018-07-22T09:22:45.594Z,1012.80
2018-07-22T09:23:45.626Z,1012.87
2018-07-22T09:24:45.652Z,1012.90
2018-07-22T09:25:45.682Z,1012.90
2018-07-22T09:26:45.710Z,1012.93
2018-07-22T09:27:45.740Z,1012.96
2018-07-22T09:28:45.772Z,1012.99
2018-07-22T09:29:45.789Z,1013.02
2018-07-22T09:30:45.823Z,1013.04
2018-07-22T09:31:45.848Z,1013.08
2018-07-22T09:32:45.881Z,1013.06
2018-07-22T09:33:45.906Z,1013.10
2018-07-22T09:34:45.939Z,1013.09
2018-07-22T09:35:46.005Z,1013.11
2018-07-22T09:36:45.988Z,1013.12
2018-07-22T09:37:46.018Z,1013.11
2018-07-22T09:38:46.052Z,1013.09
2018-07-22T09:39:46.080Z,1013.12
2018-07-22T09:40:46.110Z,1013.09
2018-07-22T09:41:46.169Z,1013.04
2018-07-22T09:42:46.167Z,1013.05
2018-07-22T09:43:46.516Z,1013.04
2018-07-22T09:44:46.221Z,1013.02
2018-07-22T09:45:46.252Z,1012.99
2018-07-22T09:46:46.281Z,1013.01
2018-07-22T09:47:46.309Z,1013.02
2018-07-22T09:48:46.340Z,1013.03
2018-07-22T09:49:46.373Z,1013.00
2018-07-22T09:50:46.401Z,1013.04
2018-07-22T09:51:46.420Z,1013.05
2018-07-22T09:52:46.453Z,1013.08
2018-07-22T09:53:46.519Z,1013.04
2018-07-22T09:54:46.510Z,1013.03
2018-07-22T09:55:46.539Z,1013.06
2018-07-22T09:56:46.566Z,1013.05
2018-07-22T09:57:46.603Z,1013.03
2018-07-22T09:58:46.631Z,1013.07
2018-07-22T09:59:46.656Z,1013.06
2018-07-22T10:00:46.687Z,1013.07
2018-07-22T10:01:48.130Z,1013.09
2018-07-22T10:02:46.745Z,1013.06
2018-07-22T10:03:46.771Z,1013.08
2018-07-22T10:04:46.809Z,1013.05
2018-07-22T10:05:46.828Z,1013.07
2018-07-22T10:06:46.860Z,1013.11
2018-07-22T10:07:46.890Z,1013.05
2018-07-22T10:08:46.915Z,1013.11
2018-07-22T10:09:46.943Z,1013.10
2018-07-22T10:10:46.980Z,1013.08
2018-07-22T10:11:47.003Z,1013.12
2018-07-22T10:12:47.027Z,1013.16
2018-07-22T10:13:47.066Z,1013.10
2018-07-22T10:14:47.126Z,1013.11
2018-07-22T10:15:47.119Z,1013.15
2018-07-22T10:16:47.145Z,1013.17
2018-07-22T10:17:47.174Z,1013.21
2018-07-22T10:18:47.207Z,1013.15
2018-07-22T10:19:47.243Z,1013.17
2018-07-22T10:20:47.261Z,1013.16
2018-07-22T10:21:47.294Z,1013.15
2018-07-22T10:22:47.331Z,1013.11
2018-07-22T10:23:47.355Z,1013.08
2018-07-22T10:24:47.380Z,1013.08
2018-07-22T10:25:47.409Z,1013.12
2018-07-22T10:26:47.437Z,1013.13
2018-07-22T10:27:47.469Z,1013.12
2018-07-22T10:28:47.596Z,1013.12
2018-07-22T10:29:47.527Z,1013.15
2018-07-22T10:30:47.551Z,1013.18
2018-07-22T10:31:47.583Z,1013.18
2018-07-22T10:32:47.615Z,1013.21
2018-07-22T10:33:47.643Z,1013.22
2018-07-22T10:34:47.678Z,1013.26
2018-07-22T10:35:47.703Z,1013.22
2018-07-22T10:36:47.726Z,1013.19
2018-07-22T10:37:47.759Z,1013.26
2018-07-22T10:38:47.787Z,1013.25
2018-07-22T10:39:47.819Z,1013.21
2018-07-22T10:40:47.884Z,1013.29
2018-07-22T10:41:47.879Z,1013.27
2018-07-22T10:42:47.907Z,1013.23
2018-07-22T10:43:47.937Z,1013.29
2018-07-22T10:44:47.960Z,1013.29
2018-07-22T10:45:47.995Z,1013.26
2018-07-22T10:46:48.025Z,1013.28
2018-07-22T10:47:48.057Z,1013.21
2018-07-22T10:48:48.085Z,1013.30
2018-07-22T10:49:48.113Z,1013.27
2018-07-22T10:50:48.185Z,1013.23
2018-07-22T10:51:48.173Z,1013.26
2018-07-22T10:52:48.207Z,1013.24
2018-07-22T10:53:48.223Z,1013.29
2018-07-22T10:54:48.255Z,1013.31
2018-07-22T10:55:48.287Z,1013.34
2018-07-22T10:56:48.316Z,1013.30
2018-07-22T10:57:48.341Z,1013.32
2018-07-22T10:58:48.370Z,1013.30
2018-07-22T10:59:48.436Z,1013.34
2018-07-22T11:00:48.433Z,1013.40
2018-07-22T11:01:48.468Z,1013.53
2018-07-22T11:02:48.503Z,1013.63
2018-07-22T11:03:48.522Z,1013.58
2018-07-22T11:04:48.555Z,1013.69
2018-07-22T11:05:48.585Z,1013.72
2018-07-22T11:06:48.619Z,1013.69
2018-07-22T11:07:48.648Z,1013.63
2018-07-22T11:08:51.362Z,1013.69
2018-07-22T11:09:48.708Z,1013.74
2018-07-22T11:10:48.747Z,1013.74
2018-07-22T11:11:48.775Z,1013.74
2018-07-22T11:12:48.810Z,1013.72
2018-07-22T11:13:48.840Z,1013.72
2018-07-22T11:14:48.958Z,1013.71
2018-07-22T11:15:48.906Z,1013.74
2018-07-22T11:16:48.941Z,1013.68
2018-07-22T11:17:48.975Z,1013.73
2018-07-22T11:18:49.011Z,1013.73
2018-07-22T11:19:49.046Z,1013.70
2018-07-22T11:20:49.080Z,1013.75
2018-07-22T11:21:49.115Z,1013.70
2018-07-22T11:22:49.151Z,1013.73
2018-07-22T11:23:49.185Z,1013.74
2018-07-22T11:24:49.226Z,1013.74
2018-07-22T11:25:49.253Z,1013.78
2018-07-22T11:26:49.291Z,1013.82
2018-07-22T11:27:49.325Z,1013.93
2018-07-22T11:28:49.450Z,1013.92
2018-07-22T11:29:49.403Z,1013.93
2018-07-22T11:30:49.445Z,1013.90
2018-07-22T11:31:49.468Z,1013.87
2018-07-22T11:32:49.513Z,1013.91
2018-07-22T11:33:49.544Z,1013.93
2018-07-22T11:34:49.583Z,1013.91
2018-07-22T11:35:49.621Z,1013.91
2018-07-22T11:36:49.660Z,1013.87
2018-07-22T11:37:49.696Z,1013.87
2018-07-22T11:38:49.730Z,1013.91
2018-07-22T11:39:49.764Z,1013.93
2018-07-22T11:40:49.804Z,1013.99
2018-07-22T11:41:49.840Z,1014.02
2018-07-22T11:42:49.882Z,1014.18
2018-07-22T11:43:49.940Z,1014.11
2018-07-22T11:44:49.956Z,1014.08
2018-07-22T11:45:49.988Z,1014.10
2018-07-22T11:46:50.032Z,1014.16
2018-07-22T11:47:50.063Z,1014.19
2018-07-22T11:48:50.101Z,1014.09
2018-07-22T11:49:50.139Z,1014.17
2018-07-22T11:50:50.194Z,1014.18
2018-07-22T11:51:50.215Z,1014.16
2018-07-22T11:52:50.260Z,1014.11
2018-07-22T11:53:50.290Z,1014.23
2018-07-22T11:54:50.330Z,1014.14
2018-07-22T11:55:50.363Z,1014.16
2018-07-22T11:56:50.401Z,1014.21
2018-07-22T11:57:50.443Z,1014.21
2018-07-22T11:58:50.475Z,1014.20
2018-07-22T11:59:50.524Z,1014.21
2018-07-22T12:00:53.240Z,1014.24
2018-07-22T12:01:50.612Z,1014.29
2018-07-22T12:02:50.650Z,1014.25
2018-07-22T12:12:51.022Z,1014.37
2018-07-22T12:13:51.058Z,1014.35
2018-07-22T12:14:51.091Z,1014.35